sensor_id;sensor_type;location;lat;lon;timestamp;temperature;humidity
33717;DHT22;20046;50.746;7.072;2023-05-29T00:00:02;15.80;99.90
33717;DHT22;20046;50.746;7.072;2023-05-29T00:02:32;15.80;99.90
33717;DHT22;20046;50.746;7.072;2023-05-29T00:04:57;15.70;99.90
33717;DHT22;20046;50.746;7.072;2023-05-29T00:07:23;15.70;99.90
33717;DHT22;20046;50.746;7.072;2023-05-29T00:09:48;15.70;99.90
33717;DHT22;20046;50.746;7.072;2023-05-29T00:12:14;15.60;99.90
33717;DHT22;20046;50.746;7.072;2023-05-29T00:14:40;15.50;99.90
33717;DHT22;20046;50.746;7.072;2023-05-29T00:17:06;15.50;99.90
33717;DHT22;20046;50.746;7.072;2023-05-29T00:19:31;15.50;99.90
33717;DHT22;20046;50.746;7.072;2023-05-29T00:21:57;15.40;99.90
33717;DHT22;20046;50.746;7.072;2023-05-29T00:24:23;15.40;99.90
33717;DHT22;20046;50.746;7.072;2023-05-29T00:26:48;15.30;99.90
33717;DHT22;20046;50.746;7.072;2023-05-29T00:29:14;15.30;99.90
33717;DHT22;20046;50.746;7.072;2023-05-29T00:31:40;15.20;99.90
33717;DHT22;20046;50.746;7.072;2023-05-29T00:34:06;15.20;99.90
33717;DHT22;20046;50.746;7.072;2023-05-29T00:36:32;15.10;99.90
33717;DHT22;20046;50.746;7.072;2023-05-29T00:38:58;15.00;99.90
33717;DHT22;20046;50.746;7.072;2023-05-29T00:41:24;15.00;99.90
33717;DHT22;20046;50.746;7.072;2023-05-29T00:43:50;14.90;99.90
33717;DHT22;20046;50.746;7.072;2023-05-29T00:46:16;14.80;99.90
33717;DHT22;20046;50.746;7.072;2023-05-29T00:48:42;14.80;99.90
33717;DHT22;20046;50.746;7.072;2023-05-29T00:51:09;14.80;99.90
33717;DHT22;20046;50.746;7.072;2023-05-29T00:53:36;14.70;99.90
33717;DHT22;20046;50.746;7.072;2023-05-29T00:56:06;14.70;99.90
33717;DHT22;20046;50.746;7.072;2023-05-29T00:58:33;14.70;99.90
33717;DHT22;20046;50.746;7.072;2023-05-29T01:01:08;14.60;99.90
33717;DHT22;20046;50.746;7.072;2023-05-29T01:03:33;14.60;99.90
33717;DHT22;20046;50.746;7.072;2023-05-29T01:06:01;14.60;99.90
33717;DHT22;20046;50.746;7.072;2023-05-29T01:08:26;14.60;99.90
33717;DHT22;20046;50.746;7.072;2023-05-29T01:10:59;14.60;99.90
33717;DHT22;20046;50.746;7.072;2023-05-29T01:13:30;14.50;99.90
33717;DHT22;20046;50.746;7.072;2023-05-29T01:21:28;14.50;99.90
33717;DHT22;20046;50.746;7.072;2023-05-29T01:27:03;14.40;99.90
33717;DHT22;20046;50.746;7.072;2023-05-29T01:29:33;14.30;99.90
33717;DHT22;20046;50.746;7.072;2023-05-29T01:31:59;14.30;99.90
33717;DHT22;20046;50.746;7.072;2023-05-29T01:34:27;14.20;99.90
33717;DHT22;20046;50.746;7.072;2023-05-29T01:36:53;14.20;99.90
33717;DHT22;20046;50.746;7.072;2023-05-29T01:39:19;14.20;99.90
33717;DHT22;20046;50.746;7.072;2023-05-29T01:41:46;14.20;99.90
33717;DHT22;20046;50.746;7.072;2023-05-29T01:44:13;14.10;99.90
33717;DHT22;20046;50.746;7.072;2023-05-29T01:46:42;14.10;99.90
33717;DHT22;20046;50.746;7.072;2023-05-29T01:49:09;14.10;99.90
33717;DHT22;20046;50.746;7.072;2023-05-29T01:51:36;14.10;99.90
33717;DHT22;20046;50.746;7.072;2023-05-29T01:54:02;14.10;99.90
33717;DHT22;20046;50.746;7.072;2023-05-29T01:56:28;14.00;99.90
33717;DHT22;20046;50.746;7.072;2023-05-29T01:59:07;14.00;99.90
33717;DHT22;20046;50.746;7.072;2023-05-29T02:01:33;14.00;99.90
33717;DHT22;20046;50.746;7.072;2023-05-29T02:03:58;14.00;99.90
33717;DHT22;20046;50.746;7.072;2023-05-29T02:06:24;14.00;99.90
33717;DHT22;20046;50.746;7.072;2023-05-29T02:08:50;14.00;99.90
33717;DHT22;20046;50.746;7.072;2023-05-29T02:11:15;14.00;99.90
33717;DHT22;20046;50.746;7.072;2023-05-29T02:13:41;14.00;99.90
33717;DHT22;20046;50.746;7.072;2023-05-29T02:16:07;14.00;99.90
33717;DHT22;20046;50.746;7.072;2023-05-29T02:18:33;14.00;99.90
33717;DHT22;20046;50.746;7.072;2023-05-29T02:21:00;14.00;99.90
33717;DHT22;20046;50.746;7.072;2023-05-29T02:23:25;14.00;99.90
33717;DHT22;20046;50.746;7.072;2023-05-29T02:25:51;14.00;99.90
33717;DHT22;20046;50.746;7.072;2023-05-29T02:28:16;13.90;99.90
33717;DHT22;20046;50.746;7.072;2023-05-29T02:30:42;14.00;99.90
33717;DHT22;20046;50.746;7.072;2023-05-29T02:33:08;13.90;99.90
33717;DHT22;20046;50.746;7.072;2023-05-29T02:35:34;13.90;99.90
33717;DHT22;20046;50.746;7.072;2023-05-29T02:37:59;13.90;99.90
33717;DHT22;20046;50.746;7.072;2023-05-29T02:40:25;13.90;99.90
33717;DHT22;20046;50.746;7.072;2023-05-29T02:42:50;13.90;99.90
33717;DHT22;20046;50.746;7.072;2023-05-29T02:45:16;13.90;99.90
33717;DHT22;20046;50.746;7.072;2023-05-29T02:47:42;13.80;99.90
33717;DHT22;20046;50.746;7.072;2023-05-29T02:50:08;13.80;99.90
33717;DHT22;20046;50.746;7.072;2023-05-29T02:52:34;13.80;99.90
33717;DHT22;20046;50.746;7.072;2023-05-29T02:55:00;13.70;99.90
33717;DHT22;20046;50.746;7.072;2023-05-29T02:57:26;13.70;99.90
33717;DHT22;20046;50.746;7.072;2023-05-29T02:59:51;13.60;99.90
33717;DHT22;20046;50.746;7.072;2023-05-29T03:02:18;13.60;99.90
33717;DHT22;20046;50.746;7.072;2023-05-29T03:04:44;13.50;99.90
33717;DHT22;20046;50.746;7.072;2023-05-29T03:07:10;13.50;99.90
33717;DHT22;20046;50.746;7.072;2023-05-29T03:09:36;13.50;99.90
33717;DHT22;20046;50.746;7.072;2023-05-29T03:12:02;13.50;99.90
33717;DHT22;20046;50.746;7.072;2023-05-29T03:14:28;13.40;99.90
33717;DHT22;20046;50.746;7.072;2023-05-29T03:16:54;13.40;99.90
33717;DHT22;20046;50.746;7.072;2023-05-29T03:19:20;13.30;99.90
33717;DHT22;20046;50.746;7.072;2023-05-29T03:21:46;13.30;99.90
33717;DHT22;20046;50.746;7.072;2023-05-29T03:24:12;13.20;99.90
33717;DHT22;20046;50.746;7.072;2023-05-29T03:26:41;13.20;99.90
33717;DHT22;20046;50.746;7.072;2023-05-29T03:29:06;13.20;99.90
33717;DHT22;20046;50.746;7.072;2023-05-29T03:31:32;13.10;99.90
33717;DHT22;20046;50.746;7.072;2023-05-29T03:34:00;13.10;99.90
33717;DHT22;20046;50.746;7.072;2023-05-29T03:36:25;13.10;99.90
33717;DHT22;20046;50.746;7.072;2023-05-29T03:38:52;13.00;99.90
33717;DHT22;20046;50.746;7.072;2023-05-29T03:41:17;13.00;99.90
33717;DHT22;20046;50.746;7.072;2023-05-29T03:43:43;12.90;99.90
33717;DHT22;20046;50.746;7.072;2023-05-29T03:46:08;12.90;99.90
33717;DHT22;20046;50.746;7.072;2023-05-29T03:48:34;12.90;99.90
33717;DHT22;20046;50.746;7.072;2023-05-29T03:51:00;12.90;99.90
33717;DHT22;20046;50.746;7.072;2023-05-29T03:53:25;12.90;99.90
33717;DHT22;20046;50.746;7.072;2023-05-29T03:55:51;12.90;99.90
33717;DHT22;20046;50.746;7.072;2023-05-29T03:58:16;12.90;99.90
33717;DHT22;20046;50.746;7.072;2023-05-29T04:00:42;12.90;99.90
33717;DHT22;20046;50.746;7.072;2023-05-29T04:03:08;12.90;99.90
33717;DHT22;20046;50.746;7.072;2023-05-29T04:05:34;13.00;99.90
33717;DHT22;20046;50.746;7.072;2023-05-29T04:08:00;13.00;99.90
33717;DHT22;20046;50.746;7.072;2023-05-29T04:10:26;13.00;99.90
33717;DHT22;20046;50.746;7.072;2023-05-29T04:12:52;13.00;99.90
33717;DHT22;20046;50.746;7.072;2023-05-29T04:15:17;13.00;99.90
33717;DHT22;20046;50.746;7.072;2023-05-29T04:17:43;13.10;99.90
33717;DHT22;20046;50.746;7.072;2023-05-29T04:20:09;13.10;99.90
33717;DHT22;20046;50.746;7.072;2023-05-29T04:22:36;13.10;99.90
33717;DHT22;20046;50.746;7.072;2023-05-29T04:25:02;13.20;99.90
33717;DHT22;20046;50.746;7.072;2023-05-29T04:27:30;13.20;99.90
33717;DHT22;20046;50.746;7.072;2023-05-29T04:29:57;13.20;99.90
33717;DHT22;20046;50.746;7.072;2023-05-29T04:32:23;13.30;99.90
33717;DHT22;20046;50.746;7.072;2023-05-29T04:34:49;13.30;99.90
33717;DHT22;20046;50.746;7.072;2023-05-29T04:37:16;13.30;99.90
33717;DHT22;20046;50.746;7.072;2023-05-29T04:39:42;13.40;99.90
33717;DHT22;20046;50.746;7.072;2023-05-29T04:42:08;13.40;99.90
33717;DHT22;20046;50.746;7.072;2023-05-29T04:44:33;13.50;99.90
33717;DHT22;20046;50.746;7.072;2023-05-29T04:46:59;13.50;99.90
33717;DHT22;20046;50.746;7.072;2023-05-29T04:49:28;13.50;99.90
33717;DHT22;20046;50.746;7.072;2023-05-29T04:51:54;13.60;99.90
33717;DHT22;20046;50.746;7.072;2023-05-29T04:54:21;13.60;99.90
33717;DHT22;20046;50.746;7.072;2023-05-29T04:56:47;13.70;99.90
33717;DHT22;20046;50.746;7.072;2023-05-29T04:59:13;13.80;99.90
33717;DHT22;20046;50.746;7.072;2023-05-29T05:01:38;13.80;99.90
33717;DHT22;20046;50.746;7.072;2023-05-29T05:04:04;13.90;99.90
33717;DHT22;20046;50.746;7.072;2023-05-29T05:06:30;13.90;99.90
33717;DHT22;20046;50.746;7.072;2023-05-29T05:08:56;14.00;99.90
33717;DHT22;20046;50.746;7.072;2023-05-29T05:11:22;14.10;99.90
33717;DHT22;20046;50.746;7.072;2023-05-29T05:13:48;14.20;99.90
33717;DHT22;20046;50.746;7.072;2023-05-29T05:16:14;14.30;99.90
33717;DHT22;20046;50.746;7.072;2023-05-29T05:18:40;14.40;99.90
33717;DHT22;20046;50.746;7.072;2023-05-29T05:21:05;14.50;99.90
33717;DHT22;20046;50.746;7.072;2023-05-29T05:23:32;14.60;99.90
33717;DHT22;20046;50.746;7.072;2023-05-29T05:25:57;14.80;99.90
33717;DHT22;20046;50.746;7.072;2023-05-29T05:28:23;14.90;99.90
33717;DHT22;20046;50.746;7.072;2023-05-29T05:30:49;15.00;99.90
33717;DHT22;20046;50.746;7.072;2023-05-29T05:33:14;15.10;99.90
33717;DHT22;20046;50.746;7.072;2023-05-29T05:35:40;15.30;99.90
33717;DHT22;20046;50.746;7.072;2023-05-29T05:38:06;15.40;99.90
33717;DHT22;20046;50.746;7.072;2023-05-29T05:40:32;15.50;99.90
33717;DHT22;20046;50.746;7.072;2023-05-29T05:42:57;15.60;99.90
33717;DHT22;20046;50.746;7.072;2023-05-29T05:45:23;15.70;99.90
33717;DHT22;20046;50.746;7.072;2023-05-29T05:47:49;15.80;99.90
33717;DHT22;20046;50.746;7.072;2023-05-29T05:50:15;15.90;99.90
33717;DHT22;20046;50.746;7.072;2023-05-29T05:52:40;16.00;99.90
33717;DHT22;20046;50.746;7.072;2023-05-29T05:55:06;16.20;99.90
33717;DHT22;20046;50.746;7.072;2023-05-29T05:57:33;16.30;99.90
33717;DHT22;20046;50.746;7.072;2023-05-29T05:59:59;16.40;99.90
33717;DHT22;20046;50.746;7.072;2023-05-29T06:02:25;16.50;99.90
33717;DHT22;20046;50.746;7.072;2023-05-29T06:04:51;16.70;99.90
33717;DHT22;20046;50.746;7.072;2023-05-29T06:07:17;16.80;99.90
33717;DHT22;20046;50.746;7.072;2023-05-29T06:09:43;16.90;99.90
33717;DHT22;20046;50.746;7.072;2023-05-29T06:12:09;17.00;99.90
33717;DHT22;20046;50.746;7.072;2023-05-29T06:14:35;17.10;99.90
33717;DHT22;20046;50.746;7.072;2023-05-29T06:17:01;17.20;99.90
33717;DHT22;20046;50.746;7.072;2023-05-29T06:19:30;17.30;99.90
33717;DHT22;20046;50.746;7.072;2023-05-29T06:21:55;17.30;99.90
33717;DHT22;20046;50.746;7.072;2023-05-29T06:24:21;17.40;99.90
33717;DHT22;20046;50.746;7.072;2023-05-29T06:26:47;17.40;99.90
33717;DHT22;20046;50.746;7.072;2023-05-29T06:29:12;17.40;99.90
33717;DHT22;20046;50.746;7.072;2023-05-29T06:31:38;17.40;99.90
33717;DHT22;20046;50.746;7.072;2023-05-29T06:34:03;17.50;99.90
33717;DHT22;20046;50.746;7.072;2023-05-29T06:36:29;17.60;99.90
33717;DHT22;20046;50.746;7.072;2023-05-29T06:38:54;17.80;99.90
33717;DHT22;20046;50.746;7.072;2023-05-29T06:41:20;18.00;99.90
33717;DHT22;20046;50.746;7.072;2023-05-29T06:43:46;18.10;99.90
33717;DHT22;20046;50.746;7.072;2023-05-29T06:46:12;18.20;99.90
33717;DHT22;20046;50.746;7.072;2023-05-29T06:48:38;18.20;99.90
33717;DHT22;20046;50.746;7.072;2023-05-29T06:51:03;18.40;99.90
33717;DHT22;20046;50.746;7.072;2023-05-29T06:53:38;18.50;99.90
33717;DHT22;20046;50.746;7.072;2023-05-29T06:56:05;18.60;99.90
33717;DHT22;20046;50.746;7.072;2023-05-29T06:58:31;18.90;99.90
33717;DHT22;20046;50.746;7.072;2023-05-29T07:00:58;19.10;99.90
33717;DHT22;20046;50.746;7.072;2023-05-29T07:03:26;19.10;99.90
33717;DHT22;20046;50.746;7.072;2023-05-29T07:05:52;19.20;99.90
33717;DHT22;20046;50.746;7.072;2023-05-29T07:08:18;19.30;99.90
33717;DHT22;20046;50.746;7.072;2023-05-29T07:10:44;19.50;99.90
33717;DHT22;20046;50.746;7.072;2023-05-29T07:13:10;19.50;99.90
33717;DHT22;20046;50.746;7.072;2023-05-29T07:15:37;19.70;99.90
33717;DHT22;20046;50.746;7.072;2023-05-29T07:18:03;19.90;99.90
33717;DHT22;20046;50.746;7.072;2023-05-29T07:20:29;20.00;99.90
33717;DHT22;20046;50.746;7.072;2023-05-29T07:22:55;20.00;99.90
33717;DHT22;20046;50.746;7.072;2023-05-29T07:25:20;20.00;99.90
33717;DHT22;20046;50.746;7.072;2023-05-29T07:27:46;20.20;99.90
33717;DHT22;20046;50.746;7.072;2023-05-29T07:30:12;20.50;99.90
33717;DHT22;20046;50.746;7.072;2023-05-29T07:32:38;20.80;99.90
33717;DHT22;20046;50.746;7.072;2023-05-29T07:35:04;21.10;99.90
33717;DHT22;20046;50.746;7.072;2023-05-29T07:37:29;21.30;99.90
33717;DHT22;20046;50.746;7.072;2023-05-29T07:39:55;21.50;99.90
33717;DHT22;20046;50.746;7.072;2023-05-29T07:42:21;21.70;99.90
33717;DHT22;20046;50.746;7.072;2023-05-29T07:44:47;21.80;99.90
33717;DHT22;20046;50.746;7.072;2023-05-29T07:47:13;22.00;99.90
33717;DHT22;20046;50.746;7.072;2023-05-29T07:49:39;22.20;99.90
33717;DHT22;20046;50.746;7.072;2023-05-29T07:52:05;22.40;99.90
33717;DHT22;20046;50.746;7.072;2023-05-29T07:54:31;22.50;99.70
33717;DHT22;20046;50.746;7.072;2023-05-29T07:56:58;22.70;99.50
33717;DHT22;20046;50.746;7.072;2023-05-29T07:59:26;23.00;99.00
33717;DHT22;20046;50.746;7.072;2023-05-29T08:01:51;22.70;98.30
33717;DHT22;20046;50.746;7.072;2023-05-29T08:04:17;22.40;98.70
33717;DHT22;20046;50.746;7.072;2023-05-29T08:06:43;22.10;98.80
33717;DHT22;20046;50.746;7.072;2023-05-29T08:09:09;21.70;99.30
33717;DHT22;20046;50.746;7.072;2023-05-29T08:11:36;21.60;99.40
33717;DHT22;20046;50.746;7.072;2023-05-29T08:14:02;21.80;99.50
33717;DHT22;20046;50.746;7.072;2023-05-29T08:16:28;21.90;99.60
33717;DHT22;20046;50.746;7.072;2023-05-29T08:18:54;22.40;99.00
33717;DHT22;20046;50.746;7.072;2023-05-29T08:21:19;22.70;98.00
33717;DHT22;20046;50.746;7.072;2023-05-29T08:23:45;22.80;97.80
33717;DHT22;20046;50.746;7.072;2023-05-29T08:26:11;23.40;97.70
33717;DHT22;20046;50.746;7.072;2023-05-29T08:28:37;23.90;97.30
33717;DHT22;20046;50.746;7.072;2023-05-29T08:31:03;24.30;96.30
33717;DHT22;20046;50.746;7.072;2023-05-29T08:33:28;24.70;95.90
33717;DHT22;20046;50.746;7.072;2023-05-29T08:35:57;24.80;95.00
33717;DHT22;20046;50.746;7.072;2023-05-29T08:38:23;25.40;95.40
33717;DHT22;20046;50.746;7.072;2023-05-29T08:40:51;25.80;94.10
33717;DHT22;20046;50.746;7.072;2023-05-29T08:43:23;26.10;93.60
33717;DHT22;20046;50.746;7.072;2023-05-29T08:45:53;26.50;92.50
33717;DHT22;20046;50.746;7.072;2023-05-29T08:48:23;26.20;91.50
33717;DHT22;20046;50.746;7.072;2023-05-29T08:50:53;26.50;91.60
33717;DHT22;20046;50.746;7.072;2023-05-29T08:53:18;26.60;90.80
33717;DHT22;20046;50.746;7.072;2023-05-29T08:55:45;26.20;90.40
33717;DHT22;20046;50.746;7.072;2023-05-29T08:58:13;26.70;90.30
33717;DHT22;20046;50.746;7.072;2023-05-29T09:00:39;26.90;90.10
33717;DHT22;20046;50.746;7.072;2023-05-29T09:03:06;26.80;87.20
33717;DHT22;20046;50.746;7.072;2023-05-29T09:05:32;27.00;88.50
33717;DHT22;20046;50.746;7.072;2023-05-29T09:07:59;27.30;86.40
33717;DHT22;20046;50.746;7.072;2023-05-29T09:10:24;27.60;85.30
33717;DHT22;20046;50.746;7.072;2023-05-29T09:12:53;28.00;83.90
33717;DHT22;20046;50.746;7.072;2023-05-29T09:15:23;28.10;83.50
33717;DHT22;20046;50.746;7.072;2023-05-29T09:20:16;28.30;82.20
33717;DHT22;20046;50.746;7.072;2023-05-29T09:22:52;28.50;80.90
33717;DHT22;20046;50.746;7.072;2023-05-29T09:25:20;28.70;80.00
33717;DHT22;20046;50.746;7.072;2023-05-29T09:27:50;28.90;79.50
33717;DHT22;20046;50.746;7.072;2023-05-29T09:30:37;28.90;78.70
33717;DHT22;20046;50.746;7.072;2023-05-29T09:33:04;29.20;76.00
33717;DHT22;20046;50.746;7.072;2023-05-29T09:38:04;29.00;77.80
33717;DHT22;20046;50.746;7.072;2023-05-29T09:40:31;29.10;77.50
33717;DHT22;20046;50.746;7.072;2023-05-29T09:43:12;29.20;77.20
33717;DHT22;20046;50.746;7.072;2023-05-29T09:45:42;29.30;75.80
33717;DHT22;20046;50.746;7.072;2023-05-29T09:48:13;29.40;74.90
33717;DHT22;20046;50.746;7.072;2023-05-29T09:50:39;29.50;73.90
33717;DHT22;20046;50.746;7.072;2023-05-29T09:53:25;29.40;74.60
33717;DHT22;20046;50.746;7.072;2023-05-29T09:55:52;29.30;74.10
33717;DHT22;20046;50.746;7.072;2023-05-29T09:58:18;29.40;73.60
33717;DHT22;20046;50.746;7.072;2023-05-29T10:00:45;29.20;74.50
33717;DHT22;20046;50.746;7.072;2023-05-29T10:03:11;29.40;73.80
33717;DHT22;20046;50.746;7.072;2023-05-29T10:05:41;29.10;73.70
33717;DHT22;20046;50.746;7.072;2023-05-29T10:08:14;29.20;73.80
33717;DHT22;20046;50.746;7.072;2023-05-29T10:10:49;29.20;74.20
33717;DHT22;20046;50.746;7.072;2023-05-29T10:13:21;29.10;74.50
33717;DHT22;20046;50.746;7.072;2023-05-29T10:15:49;29.00;73.10
33717;DHT22;20046;50.746;7.072;2023-05-29T10:18:26;29.20;73.30
33717;DHT22;20046;50.746;7.072;2023-05-29T10:20:54;29.40;73.80
33717;DHT22;20046;50.746;7.072;2023-05-29T10:23:24;29.70;73.90
33717;DHT22;20046;50.746;7.072;2023-05-29T10:25:53;30.10;72.60
33717;DHT22;20046;50.746;7.072;2023-05-29T10:28:20;30.30;71.40
33717;DHT22;20046;50.746;7.072;2023-05-29T10:30:54;30.40;71.20
33717;DHT22;20046;50.746;7.072;2023-05-29T10:33:37;30.50;69.70
33717;DHT22;20046;50.746;7.072;2023-05-29T10:36:17;30.70;69.70
33717;DHT22;20046;50.746;7.072;2023-05-29T10:38:46;31.00;69.20
33717;DHT22;20046;50.746;7.072;2023-05-29T10:43:57;30.90;69.10
33717;DHT22;20046;50.746;7.072;2023-05-29T10:49:22;31.10;67.50
33717;DHT22;20046;50.746;7.072;2023-05-29T10:51:48;31.20;68.20
33717;DHT22;20046;50.746;7.072;2023-05-29T10:54:14;31.20;67.50
33717;DHT22;20046;50.746;7.072;2023-05-29T10:56:44;31.30;66.80
33717;DHT22;20046;50.746;7.072;2023-05-29T10:59:10;31.40;67.10
33717;DHT22;20046;50.746;7.072;2023-05-29T11:01:38;31.70;66.30
33717;DHT22;20046;50.746;7.072;2023-05-29T11:06:51;31.70;66.40
33717;DHT22;20046;50.746;7.072;2023-05-29T11:09:34;31.70;66.20
33717;DHT22;20046;50.746;7.072;2023-05-29T11:14:55;31.80;66.80
33717;DHT22;20046;50.746;7.072;2023-05-29T11:17:47;32.00;65.50
33717;DHT22;20046;50.746;7.072;2023-05-29T11:20:52;32.20;65.00
33717;DHT22;20046;50.746;7.072;2023-05-29T11:23:22;32.00;64.40
33717;DHT22;20046;50.746;7.072;2023-05-29T11:25:51;31.60;65.30
33717;DHT22;20046;50.746;7.072;2023-05-29T11:28:16;31.90;65.10
33717;DHT22;20046;50.746;7.072;2023-05-29T11:30:48;31.80;65.40
33717;DHT22;20046;50.746;7.072;2023-05-29T11:33:28;32.10;64.60
33717;DHT22;20046;50.746;7.072;2023-05-29T11:35:59;32.30;63.80
33717;DHT22;20046;50.746;7.072;2023-05-29T11:38:27;32.60;63.60
33717;DHT22;20046;50.746;7.072;2023-05-29T11:40:54;32.90;63.40
33717;DHT22;20046;50.746;7.072;2023-05-29T11:43:21;33.30;62.80
33717;DHT22;20046;50.746;7.072;2023-05-29T11:45:46;32.90;61.40
33717;DHT22;20046;50.746;7.072;2023-05-29T11:48:12;33.20;62.80
33717;DHT22;20046;50.746;7.072;2023-05-29T11:50:38;33.60;61.60
33717;DHT22;20046;50.746;7.072;2023-05-29T11:53:06;34.20;62.10
33717;DHT22;20046;50.746;7.072;2023-05-29T11:55:31;34.50;60.30
33717;DHT22;20046;50.746;7.072;2023-05-29T11:58:02;34.20;60.00
33717;DHT22;20046;50.746;7.072;2023-05-29T12:00:34;34.30;60.30
33717;DHT22;20046;50.746;7.072;2023-05-29T12:03:00;34.90;60.20
33717;DHT22;20046;50.746;7.072;2023-05-29T12:05:30;34.60;59.60
33717;DHT22;20046;50.746;7.072;2023-05-29T12:07:57;34.70;59.50
33717;DHT22;20046;50.746;7.072;2023-05-29T12:10:23;34.40;58.10
33717;DHT22;20046;50.746;7.072;2023-05-29T12:12:57;34.50;59.40
33717;DHT22;20046;50.746;7.072;2023-05-29T12:15:23;34.50;58.70
33717;DHT22;20046;50.746;7.072;2023-05-29T12:17:50;34.70;58.90
33717;DHT22;20046;50.746;7.072;2023-05-29T12:20:17;34.70;57.70
33717;DHT22;20046;50.746;7.072;2023-05-29T12:22:44;34.60;58.00
33717;DHT22;20046;50.746;7.072;2023-05-29T12:27:42;33.60;58.10
33717;DHT22;20046;50.746;7.072;2023-05-29T12:30:12;33.90;59.00
33717;DHT22;20046;50.746;7.072;2023-05-29T12:32:44;34.50;58.70
33717;DHT22;20046;50.746;7.072;2023-05-29T12:40:25;35.80;57.60
33717;DHT22;20046;50.746;7.072;2023-05-29T12:43:16;36.10;56.20
33717;DHT22;20046;50.746;7.072;2023-05-29T12:45:41;36.60;55.80
33717;DHT22;20046;50.746;7.072;2023-05-29T12:48:07;36.80;55.60
33717;DHT22;20046;50.746;7.072;2023-05-29T12:50:38;36.90;55.60
33717;DHT22;20046;50.746;7.072;2023-05-29T12:53:10;36.70;53.80
33717;DHT22;20046;50.746;7.072;2023-05-29T12:55:41;36.80;55.00
33717;DHT22;20046;50.746;7.072;2023-05-29T12:58:16;36.70;55.10
33717;DHT22;20046;50.746;7.072;2023-05-29T13:00:43;36.70;53.70
33717;DHT22;20046;50.746;7.072;2023-05-29T13:03:09;36.20;55.40
33717;DHT22;20046;50.746;7.072;2023-05-29T13:05:38;36.30;54.40
33717;DHT22;20046;50.746;7.072;2023-05-29T13:08:04;35.80;53.10
33717;DHT22;20046;50.746;7.072;2023-05-29T13:10:33;34.90;53.90
33717;DHT22;20046;50.746;7.072;2023-05-29T13:13:00;34.60;56.10
33717;DHT22;20046;50.746;7.072;2023-05-29T13:15:25;33.10;57.30
33717;DHT22;20046;50.746;7.072;2023-05-29T13:17:52;31.40;58.60
33717;DHT22;20046;50.746;7.072;2023-05-29T13:20:18;30.50;61.50
33717;DHT22;20046;50.746;7.072;2023-05-29T13:22:45;29.60;61.80
33717;DHT22;20046;50.746;7.072;2023-05-29T13:25:12;29.00;62.40
33717;DHT22;20046;50.746;7.072;2023-05-29T13:27:43;28.50;64.30
33717;DHT22;20046;50.746;7.072;2023-05-29T13:30:10;28.20;64.50
33717;DHT22;20046;50.746;7.072;2023-05-29T13:32:36;28.00;64.50
33717;DHT22;20046;50.746;7.072;2023-05-29T13:35:02;27.60;65.90
33717;DHT22;20046;50.746;7.072;2023-05-29T13:37:28;27.60;65.70
33717;DHT22;20046;50.746;7.072;2023-05-29T13:39:54;27.20;64.70
33717;DHT22;20046;50.746;7.072;2023-05-29T13:42:20;26.80;65.70
33717;DHT22;20046;50.746;7.072;2023-05-29T13:44:47;26.50;66.40
33717;DHT22;20046;50.746;7.072;2023-05-29T13:47:12;26.30;66.40
33717;DHT22;20046;50.746;7.072;2023-05-29T13:49:38;26.10;66.90
33717;DHT22;20046;50.746;7.072;2023-05-29T13:52:05;26.10;67.90
33717;DHT22;20046;50.746;7.072;2023-05-29T13:54:31;26.10;67.10
33717;DHT22;20046;50.746;7.072;2023-05-29T13:57:01;26.00;68.30
33717;DHT22;20046;50.746;7.072;2023-05-29T13:59:27;26.10;67.90
33717;DHT22;20046;50.746;7.072;2023-05-29T14:01:52;26.10;69.10
33717;DHT22;20046;50.746;7.072;2023-05-29T14:04:18;26.30;67.50
33717;DHT22;20046;50.746;7.072;2023-05-29T14:06:44;26.30;68.40
33717;DHT22;20046;50.746;7.072;2023-05-29T14:09:10;26.20;68.30
33717;DHT22;20046;50.746;7.072;2023-05-29T14:11:36;26.20;69.60
33717;DHT22;20046;50.746;7.072;2023-05-29T14:14:03;26.30;69.50
33717;DHT22;20046;50.746;7.072;2023-05-29T14:16:29;26.00;68.10
33717;DHT22;20046;50.746;7.072;2023-05-29T14:18:55;25.70;68.10
33717;DHT22;20046;50.746;7.072;2023-05-29T14:21:21;25.70;69.40
33717;DHT22;20046;50.746;7.072;2023-05-29T14:23:47;25.70;69.30
33717;DHT22;20046;50.746;7.072;2023-05-29T14:26:12;25.70;69.10
33717;DHT22;20046;50.746;7.072;2023-05-29T14:28:38;25.80;69.30
33717;DHT22;20046;50.746;7.072;2023-05-29T14:31:04;25.80;69.30
33717;DHT22;20046;50.746;7.072;2023-05-29T14:33:30;25.60;68.00
33717;DHT22;20046;50.746;7.072;2023-05-29T14:35:56;25.40;68.20
33717;DHT22;20046;50.746;7.072;2023-05-29T14:38:22;25.40;69.20
33717;DHT22;20046;50.746;7.072;2023-05-29T14:40:48;25.40;69.00
33717;DHT22;20046;50.746;7.072;2023-05-29T14:43:14;25.30;68.70
33717;DHT22;20046;50.746;7.072;2023-05-29T14:45:39;25.20;69.30
33717;DHT22;20046;50.746;7.072;2023-05-29T14:48:05;25.00;67.90
33717;DHT22;20046;50.746;7.072;2023-05-29T14:50:30;24.80;68.50
33717;DHT22;20046;50.746;7.072;2023-05-29T14:52:56;24.90;69.30
33717;DHT22;20046;50.746;7.072;2023-05-29T14:55:22;24.90;69.60
33717;DHT22;20046;50.746;7.072;2023-05-29T14:57:47;24.70;68.30
33717;DHT22;20046;50.746;7.072;2023-05-29T15:00:13;24.50;68.60
33717;DHT22;20046;50.746;7.072;2023-05-29T15:02:39;24.70;70.50
33717;DHT22;20046;50.746;7.072;2023-05-29T15:05:05;24.60;69.70
33717;DHT22;20046;50.746;7.072;2023-05-29T15:07:32;24.40;69.80
33717;DHT22;20046;50.746;7.072;2023-05-29T15:09:59;24.50;70.50
33717;DHT22;20046;50.746;7.072;2023-05-29T15:12:25;24.70;70.30
33717;DHT22;20046;50.746;7.072;2023-05-29T15:14:51;24.70;70.10
33717;DHT22;20046;50.746;7.072;2023-05-29T15:17:17;24.70;70.00
33717;DHT22;20046;50.746;7.072;2023-05-29T15:19:43;24.60;71.00
33717;DHT22;20046;50.746;7.072;2023-05-29T15:22:09;24.60;70.90
33717;DHT22;20046;50.746;7.072;2023-05-29T15:24:34;24.70;71.10
33717;DHT22;20046;50.746;7.072;2023-05-29T15:27:01;24.60;70.70
33717;DHT22;20046;50.746;7.072;2023-05-29T15:29:32;24.40;69.70
33717;DHT22;20046;50.746;7.072;2023-05-29T15:31:58;24.20;70.30
33717;DHT22;20046;50.746;7.072;2023-05-29T15:34:24;24.30;71.00
33717;DHT22;20046;50.746;7.072;2023-05-29T15:36:49;24.20;71.20
33717;DHT22;20046;50.746;7.072;2023-05-29T15:39:15;24.10;70.60
33717;DHT22;20046;50.746;7.072;2023-05-29T15:41:41;24.10;71.40
33717;DHT22;20046;50.746;7.072;2023-05-29T15:44:07;24.00;70.80
33717;DHT22;20046;50.746;7.072;2023-05-29T15:46:32;23.80;71.30
33717;DHT22;20046;50.746;7.072;2023-05-29T15:48:58;23.70;71.50
33717;DHT22;20046;50.746;7.072;2023-05-29T15:51:23;23.70;71.80
33717;DHT22;20046;50.746;7.072;2023-05-29T15:53:49;23.60;71.20
33717;DHT22;20046;50.746;7.072;2023-05-29T15:56:15;23.50;71.50
33717;DHT22;20046;50.746;7.072;2023-05-29T15:58:40;23.50;71.50
33717;DHT22;20046;50.746;7.072;2023-05-29T16:01:06;23.40;71.90